Daikoku — JD3247 — position and weather

sailwx.info

Track history (hours):
 
Tides and Currents Weather Stations Pressure Air Temp Water Temp Dewpoint Dewpoint Depression Visibility Wind Speed Wind Dir Waves Ship Positions

Daikoku

Last reported at 2017-May-29 00:00 UTC. Time now 2017-May-29 00:04 UTC.
Position N 34°39' E 135°15'.

Length 95 m; draft 3.3 m.

Type: Cargo ship. MMSI: 431003009.

Date/timePositionNaut miles runAvg speedWind from/ knotsBaromVisibWave heightAir tempDewpointWater temp
2017-May-29 00:00N 34°39' E 135°15'0 0.0
2017-May-28 23:30N 34°39' E 135°15'1 1.1
2017-May-28 23:00N 34°39' E 135°15'2 3.7
2017-May-28 22:30N 34°37' E 135°16'1 2.7
2017-May-28 22:00N 34°36' E 135°15'2 4.0
2017-May-28 21:30N 34°35' E 135°13'611.5
2017-May-28 21:00N 34°34' E 135°07'713.5
2017-May-28 20:30N 34°37' E 134°59'714.7
2017-May-28 20:00N 34°34' E 134°51'  
2017-May-26 07:50N 34°37' E 135°01'3 9.3
2017-May-26 07:30N 34°36' E 135°05'611.7
2017-May-26 07:00N 34°37' E 135°12'4 7.5
2017-May-26 06:30N 34°39' E 135°15'0 0.9
2017-May-26 06:00N 34°40' E 135°14'0 0.4
2017-May-26 05:30N 34°40' E 135°15'1 1.5
2017-May-26 05:00N 34°40' E 135°15'2 3.5
2017-May-26 04:30N 34°41' E 135°13'0 0.0
2017-May-26 04:00N 34°41' E 135°13'0 0.0
2017-May-26 03:30N 34°41' E 135°13'0 0.0
2017-May-26 03:00N 34°41' E 135°13'0 0.0
2017-May-26 02:30N 34°41' E 135°13'0 0.0
2017-May-26 02:00N 34°41' E 135°13'0 0.0
2017-May-26 01:30N 34°41' E 135°13'0 0.0
2017-May-26 01:00N 34°41' E 135°13'0 0.0
2017-May-26 00:30N 34°41' E 135°13'0 0.0
2017-May-26 00:00N 34°41' E 135°13'0 0.0
2017-May-25 23:30N 34°41' E 135°13'0 0.0
2017-May-25 23:00N 34°41' E 135°13'0 0.0
2017-May-25 22:30N 34°41' E 135°13'0 0.0
2017-May-25 22:00N 34°41' E 135°13'0 0.0
2017-May-25 21:30N 34°41' E 135°13'0 0.0
2017-May-25 21:00N 34°41' E 135°13'0 0.0
2017-May-25 20:30N 34°41' E 135°13'0 0.0
2017-May-25 20:00N 34°41' E 135°13'0 0.0
2017-May-25 19:30N 34°41' E 135°13'0 0.0
2017-May-25 19:00N 34°41' E 135°13'0 0.0
2017-May-25 18:30N 34°41' E 135°13'0 0.0
2017-May-25 18:00N 34°41' E 135°13'0 0.0
2017-May-25 17:30N 34°41' E 135°13'0 0.0
2017-May-25 17:00N 34°41' E 135°13'0 0.0
2017-May-25 16:30N 34°41' E 135°13'0 0.0
2017-May-25 16:00N 34°41' E 135°13'0 0.0
2017-May-25 15:30N 34°41' E 135°13'0 0.0
2017-May-25 15:00N 34°41' E 135°13'0 0.0
2017-May-25 14:00N 34°41' E 135°13'0 0.0
2017-May-25 13:30N 34°41' E 135°13'0 0.0
2017-May-25 13:00N 34°41' E 135°13'0 0.0
2017-May-25 12:30N 34°41' E 135°13'0 0.0
2017-May-25 12:00N 34°41' E 135°13'0 0.0
2017-May-25 11:30N 34°41' E 135°13'0 0.0
2017-May-25 11:00N 34°41' E 135°13'0 0.0
2017-May-25 10:30N 34°41' E 135°13'0 0.0
2017-May-25 10:00N 34°41' E 135°13'0 0.0
2017-May-25 09:30N 34°41' E 135°13'0 0.0
2017-May-25 09:00N 34°41' E 135°13'0 0.0
2017-May-25 08:30N 34°41' E 135°13'1 1.3
2017-May-25 08:00N 34°41' E 135°14'2 4.0
2017-May-25 07:30N 34°39' E 135°15'1 1.3
2017-May-25 07:00N 34°40' E 135°15'1 2.4
2017-May-25 06:30N 34°41' E 135°15'0 0.0
2017-May-25 06:00N 34°41' E 135°15'0 0.0
2017-May-25 05:30N 34°41' E 135°15'0 0.0
2017-May-25 05:00N 34°41' E 135°15'0 0.2
2017-May-25 04:30N 34°41' E 135°15'4 8.0
2017-May-25 04:00N 34°37' E 135°15'0 0.1
2017-May-25 03:30N 34°37' E 135°15'0 0.0
2017-May-25 03:00N 34°37' E 135°15'0 0.0
2017-May-25 02:30N 34°37' E 135°15'0 0.0
2017-May-25 02:00N 34°37' E 135°15'0 0.1
2017-May-25 01:30N 34°37' E 135°15'0 0.1
2017-May-25 01:00N 34°37' E 135°15'0 0.0
2017-May-25 00:30N 34°37' E 135°15'0 0.0
2017-May-25 00:00N 34°37' E 135°15'0 0.0
2017-May-24 23:30N 34°37' E 135°15'0 0.0
2017-May-24 23:00N 34°37' E 135°15'0 0.0
2017-May-24 22:30N 34°37' E 135°15'0 0.0
2017-May-24 22:00N 34°37' E 135°15'0 0.0
2017-May-24 21:30N 34°37' E 135°15'0 0.0
2017-May-24 21:00N 34°37' E 135°15'0 0.0
2017-May-24 20:30N 34°37' E 135°15'0 0.0
2017-May-24 20:00N 34°37' E 135°15'0 0.0
2017-May-24 19:30N 34°37' E 135°15'0 0.0
2017-May-24 19:00N 34°37' E 135°15'0 0.0
2017-May-24 18:30N 34°37' E 135°15'0 0.1
2017-May-24 17:59N 34°37' E 135°15'0 0.0
2017-May-24 17:22N 34°37' E 135°15'0 0.0
2017-May-24 17:00N 34°37' E 135°15'0 0.0
2017-May-24 16:30N 34°37' E 135°15'0 0.0
2017-May-24 16:00N 34°37' E 135°15'0 0.1
2017-May-24 15:30N 34°37' E 135°15'0 0.0
2017-May-24 15:00N 34°37' E 135°15'0 0.0
2017-May-24 14:00N 34°37' E 135°15'0 0.0
2017-May-24 13:30N 34°37' E 135°15'0 0.0
2017-May-24 13:00N 34°37' E 135°15'0 0.0
2017-May-24 12:30N 34°37' E 135°15'0 0.0
2017-May-24 12:00N 34°37' E 135°15'2 4.1
2017-May-24 11:30N 34°35' E 135°13'612.7
2017-May-24 11:00N 34°35' E 135°06'5 9.2
2017-May-24 10:29N 34°37' E 135°01'7 9.2
2017-May-24 09:41N 34°34' E 134°52'8 0.2
2017-May-22 05:56N 34°37' E 135°01'511.8
2017-May-22 05:30N 34°37' E 135°07'611.8
2017-May-22 05:01N 34°37' E 135°14'5 9.0
2017-May-22 04:31N 34°40' E 135°18'1 2.6
2017-May-22 04:00N 34°41' E 135°17'0 0.0
2017-May-22 03:30N 34°41' E 135°17'0 0.0
2017-May-22 03:01N 34°41' E 135°17'0 0.0
2017-May-22 02:30N 34°41' E 135°17'1 2.1
2017-May-22 02:01N 34°41' E 135°18'3 5.8
2017-May-22 01:30N 34°39' E 135°15'0 0.4
2017-May-22 01:00N 34°39' E 135°15'0 0.0
2017-May-22 00:31N 34°39' E 135°15'0 0.0
2017-May-22 00:00N 34°39' E 135°15'0 0.0
2017-May-21 23:31N 34°39' E 135°15'1 2.5
2017-May-21 23:01N 34°39' E 135°16'2 3.8
2017-May-21 22:31N 34°37' E 135°15'0 0.1
2017-May-21 22:00N 34°37' E 135°15'0 0.0
2017-May-21 21:31N 34°37' E 135°15'0 0.0
2017-May-21 21:00N 34°37' E 135°15'0 0.0
2017-May-21 20:30N 34°37' E 135°15'0 0.0
2017-May-21 20:01N 34°37' E 135°15'0 0.1
2017-May-21 19:30N 34°37' E 135°15'0 0.1
2017-May-21 19:00N 34°37' E 135°15'0 0.0
2017-May-21 18:31N 34°37' E 135°15'0 0.0
2017-May-21 18:01N 34°37' E 135°15'0 0.0
2017-May-21 17:30N 34°37' E 135°15'0 0.0
2017-May-21 17:01N 34°37' E 135°15'0 0.0
2017-May-21 16:30N 34°37' E 135°15'0 0.0
2017-May-21 16:01N 34°37' E 135°15'0 0.0
2017-May-21 15:30N 34°37' E 135°15'0 0.0
2017-May-21 15:00N 34°37' E 135°15'0 0.0
2017-May-21 14:01N 34°37' E 135°15'0 0.0
2017-May-21 13:31N 34°37' E 135°15'0 0.0
2017-May-21 13:01N 34°37' E 135°15'0 0.1
2017-May-21 12:31N 34°37' E 135°15'0 0.1
2017-May-21 12:01N 34°37' E 135°15'0 0.0
2017-May-21 11:31N 34°37' E 135°15'0 0.0
2017-May-21 11:01N 34°37' E 135°15'0 0.5
2017-May-21 10:30N 34°37' E 135°15'611.8
2017-May-21 10:01N 34°35' E 135°08'611.1
2017-May-21 09:29N 34°37' E 135°02'510.2
2017-May-21 09:00N 34°36' E 134°56'5 0.1
2017-May-19 07:47N 34°37' E 135°01'311.5
2017-May-19 07:30N 34°36' E 135°05'611.8
2017-May-19 07:00N 34°37' E 135°12'3 6.6
2017-May-19 06:31N 34°39' E 135°15'0 0.1
2017-May-19 06:00N 34°39' E 135°15'0 0.0
2017-May-19 05:30N 34°39' E 135°15'0 0.4
2017-May-19 05:00N 34°39' E 135°15'3 6.7
2017-May-19 04:30N 34°39' E 135°19'0 0.2
2017-May-19 04:00N 34°39' E 135°19'0 0.0
2017-May-19 03:30N 34°39' E 135°19'0 0.1
2017-May-19 03:00N 34°39' E 135°19'0 0.0
2017-May-19 02:30N 34°39' E 135°19'3 5.1
2017-May-19 02:00N 34°41' E 135°17'0 0.0
2017-May-19 01:30N 34°41' E 135°17'0 0.0
2017-May-19 01:00N 34°41' E 135°17'2 3.3
2017-May-19 00:30N 34°40' E 135°15'1 1.3
2017-May-19 00:00N 34°39' E 135°15'  
Track history (hours):
 
Tides and Currents Weather Stations Pressure Air Temp Water Temp Dewpoint Dewpoint Depression Visibility Wind Speed Wind Dir Waves Ship Positions

Daikoku

Last reported at 2017-May-29 00:00 UTC. Time now 2017-May-29 00:04 UTC.
Position N 34°39' E 135°15'.

Length 95 m; draft 3.3 m.

Type: Cargo ship. MMSI: 431003009.

Date/timePositionNaut miles runAvg speedWind from/ knotsBaromVisibWave heightAir tempDewpointWater temp
2017-May-29 00:00N 34°39' E 135°15'0 0.0
2017-May-28 23:30N 34°39' E 135°15'1 1.1
2017-May-28 23:00N 34°39' E 135°15'2 3.7
2017-May-28 22:30N 34°37' E 135°16'1 2.7
2017-May-28 22:00N 34°36' E 135°15'2 4.0
2017-May-28 21:30N 34°35' E 135°13'611.5
2017-May-28 21:00N 34°34' E 135°07'713.5
2017-May-28 20:30N 34°37' E 134°59'714.7
2017-May-28 20:00N 34°34' E 134°51'  
2017-May-26 07:50N 34°37' E 135°01'3 9.3
2017-May-26 07:30N 34°36' E 135°05'611.7
2017-May-26 07:00N 34°37' E 135°12'4 7.5
2017-May-26 06:30N 34°39' E 135°15'0 0.9
2017-May-26 06:00N 34°40' E 135°14'0 0.4
2017-May-26 05:30N 34°40' E 135°15'1 1.5
2017-May-26 05:00N 34°40' E 135°15'2 3.5
2017-May-26 04:30N 34°41' E 135°13'0 0.0
2017-May-26 04:00N 34°41' E 135°13'0 0.0
2017-May-26 03:30N 34°41' E 135°13'0 0.0
2017-May-26 03:00N 34°41' E 135°13'0 0.0
2017-May-26 02:30N 34°41' E 135°13'0 0.0
2017-May-26 02:00N 34°41' E 135°13'0 0.0
2017-May-26 01:30N 34°41' E 135°13'0 0.0
2017-May-26 01:00N 34°41' E 135°13'0 0.0
2017-May-26 00:30N 34°41' E 135°13'0 0.0
2017-May-26 00:00N 34°41' E 135°13'0 0.0
2017-May-25 23:30N 34°41' E 135°13'0 0.0
2017-May-25 23:00N 34°41' E 135°13'0 0.0
2017-May-25 22:30N 34°41' E 135°13'0 0.0
2017-May-25 22:00N 34°41' E 135°13'0 0.0
2017-May-25 21:30N 34°41' E 135°13'0 0.0
2017-May-25 21:00N 34°41' E 135°13'0 0.0
2017-May-25 20:30N 34°41' E 135°13'0 0.0
2017-May-25 20:00N 34°41' E 135°13'0 0.0
2017-May-25 19:30N 34°41' E 135°13'0 0.0
2017-May-25 19:00N 34°41' E 135°13'0 0.0
2017-May-25 18:30N 34°41' E 135°13'0 0.0
2017-May-25 18:00N 34°41' E 135°13'0 0.0
2017-May-25 17:30N 34°41' E 135°13'0 0.0
2017-May-25 17:00N 34°41' E 135°13'0 0.0
2017-May-25 16:30N 34°41' E 135°13'0 0.0
2017-May-25 16:00N 34°41' E 135°13'0 0.0
2017-May-25 15:30N 34°41' E 135°13'0 0.0
2017-May-25 15:00N 34°41' E 135°13'0 0.0
2017-May-25 14:00N 34°41' E 135°13'0 0.0
2017-May-25 13:30N 34°41' E 135°13'0 0.0
2017-May-25 13:00N 34°41' E 135°13'0 0.0
2017-May-25 12:30N 34°41' E 135°13'0 0.0
2017-May-25 12:00N 34°41' E 135°13'0 0.0
2017-May-25 11:30N 34°41' E 135°13'0 0.0
2017-May-25 11:00N 34°41' E 135°13'0 0.0
2017-May-25 10:30N 34°41' E 135°13'0 0.0
2017-May-25 10:00N 34°41' E 135°13'0 0.0
2017-May-25 09:30N 34°41' E 135°13'0 0.0
2017-May-25 09:00N 34°41' E 135°13'0 0.0
2017-May-25 08:30N 34°41' E 135°13'1 1.3
2017-May-25 08:00N 34°41' E 135°14'2 4.0
2017-May-25 07:30N 34°39' E 135°15'1 1.3
2017-May-25 07:00N 34°40' E 135°15'1 2.4
2017-May-25 06:30N 34°41' E 135°15'0 0.0
2017-May-25 06:00N 34°41' E 135°15'0 0.0
2017-May-25 05:30N 34°41' E 135°15'0 0.0
2017-May-25 05:00N 34°41' E 135°15'0 0.2
2017-May-25 04:30N 34°41' E 135°15'4 8.0
2017-May-25 04:00N 34°37' E 135°15'0 0.1
2017-May-25 03:30N 34°37' E 135°15'0 0.0
2017-May-25 03:00N 34°37' E 135°15'0 0.0
2017-May-25 02:30N 34°37' E 135°15'0 0.0
2017-May-25 02:00N 34°37' E 135°15'0 0.1
2017-May-25 01:30N 34°37' E 135°15'0 0.1
2017-May-25 01:00N 34°37' E 135°15'0 0.0
2017-May-25 00:30N 34°37' E 135°15'0 0.0
2017-May-25 00:00N 34°37' E 135°15'0 0.0
2017-May-24 23:30N 34°37' E 135°15'0 0.0
2017-May-24 23:00N 34°37' E 135°15'0 0.0
2017-May-24 22:30N 34°37' E 135°15'0 0.0
2017-May-24 22:00N 34°37' E 135°15'0 0.0
2017-May-24 21:30N 34°37' E 135°15'0 0.0
2017-May-24 21:00N 34°37' E 135°15'0 0.0
2017-May-24 20:30N 34°37' E 135°15'0 0.0
2017-May-24 20:00N 34°37' E 135°15'0 0.0
2017-May-24 19:30N 34°37' E 135°15'0 0.0
2017-May-24 19:00N 34°37' E 135°15'0 0.0
2017-May-24 18:30N 34°37' E 135°15'0 0.1
2017-May-24 17:59N 34°37' E 135°15'0 0.0
2017-May-24 17:22N 34°37' E 135°15'0 0.0
2017-May-24 17:00N 34°37' E 135°15'0 0.0
2017-May-24 16:30N 34°37' E 135°15'0 0.0
2017-May-24 16:00N 34°37' E 135°15'0 0.1
2017-May-24 15:30N 34°37' E 135°15'0 0.0
2017-May-24 15:00N 34°37' E 135°15'0 0.0
2017-May-24 14:00N 34°37' E 135°15'0 0.0
2017-May-24 13:30N 34°37' E 135°15'0 0.0
2017-May-24 13:00N 34°37' E 135°15'0 0.0
2017-May-24 12:30N 34°37' E 135°15'0 0.0
2017-May-24 12:00N 34°37' E 135°15'2 4.1
2017-May-24 11:30N 34°35' E 135°13'612.7
2017-May-24 11:00N 34°35' E 135°06'5 9.2
2017-May-24 10:29N 34°37' E 135°01'7 9.2
2017-May-24 09:41N 34°34' E 134°52'8 0.2
2017-May-22 05:56N 34°37' E 135°01'511.8
2017-May-22 05:30N 34°37' E 135°07'611.8
2017-May-22 05:01N 34°37' E 135°14'5 9.0
2017-May-22 04:31N 34°40' E 135°18'1 2.6
2017-May-22 04:00N 34°41' E 135°17'0 0.0
2017-May-22 03:30N 34°41' E 135°17'0 0.0
2017-May-22 03:01N 34°41' E 135°17'0 0.0
2017-May-22 02:30N 34°41' E 135°17'1 2.1
2017-May-22 02:01N 34°41' E 135°18'3 5.8
2017-May-22 01:30N 34°39' E 135°15'0 0.4
2017-May-22 01:00N 34°39' E 135°15'0 0.0
2017-May-22 00:31N 34°39' E 135°15'0 0.0
2017-May-22 00:00N 34°39' E 135°15'0 0.0
2017-May-21 23:31N 34°39' E 135°15'1 2.5
2017-May-21 23:01N 34°39' E 135°16'2 3.8
2017-May-21 22:31N 34°37' E 135°15'0 0.1
2017-May-21 22:00N 34°37' E 135°15'0 0.0
2017-May-21 21:31N 34°37' E 135°15'0 0.0
2017-May-21 21:00N 34°37' E 135°15'0 0.0
2017-May-21 20:30N 34°37' E 135°15'0 0.0
2017-May-21 20:01N 34°37' E 135°15'0 0.1
2017-May-21 19:30N 34°37' E 135°15'0 0.1
2017-May-21 19:00N 34°37' E 135°15'0 0.0
2017-May-21 18:31N 34°37' E 135°15'0 0.0
2017-May-21 18:01N 34°37' E 135°15'0 0.0
2017-May-21 17:30N 34°37' E 135°15'0 0.0
2017-May-21 17:01N 34°37' E 135°15'0 0.0
2017-May-21 16:30N 34°37' E 135°15'0 0.0
2017-May-21 16:01N 34°37' E 135°15'0 0.0
2017-May-21 15:30N 34°37' E 135°15'0 0.0
2017-May-21 15:00N 34°37' E 135°15'0 0.0
2017-May-21 14:01N 34°37' E 135°15'0 0.0
2017-May-21 13:31N 34°37' E 135°15'0 0.0
2017-May-21 13:01N 34°37' E 135°15'0 0.1
2017-May-21 12:31N 34°37' E 135°15'0 0.1
2017-May-21 12:01N 34°37' E 135°15'0 0.0
2017-May-21 11:31N 34°37' E 135°15'0 0.0
2017-May-21 11:01N 34°37' E 135°15'0 0.5
2017-May-21 10:30N 34°37' E 135°15'611.8
2017-May-21 10:01N 34°35' E 135°08'611.1
2017-May-21 09:29N 34°37' E 135°02'510.2
2017-May-21 09:00N 34°36' E 134°56'5 0.1
2017-May-19 07:47N 34°37' E 135°01'311.5
2017-May-19 07:30N 34°36' E 135°05'611.8
2017-May-19 07:00N 34°37' E 135°12'3 6.6
2017-May-19 06:31N 34°39' E 135°15'0 0.1
2017-May-19 06:00N 34°39' E 135°15'0 0.0
2017-May-19 05:30N 34°39' E 135°15'0 0.4
2017-May-19 05:00N 34°39' E 135°15'3 6.7
2017-May-19 04:30N 34°39' E 135°19'0 0.2
2017-May-19 04:00N 34°39' E 135°19'0 0.0
2017-May-19 03:30N 34°39' E 135°19'0 0.1
2017-May-19 03:00N 34°39' E 135°19'0 0.0
2017-May-19 02:30N 34°39' E 135°19'3 5.1
2017-May-19 02:00N 34°41' E 135°17'0 0.0
2017-May-19 01:30N 34°41' E 135°17'0 0.0
2017-May-19 01:00N 34°41' E 135°17'2 3.3
2017-May-19 00:30N 34°40' E 135°15'1 1.3
2017-May-19 00:00N 34°39' E 135°15'  

Dump ship's entire track history